Time;durP1;ratioP1;P1;durP2;ratioP2;P2;SDS_P1;SDS_P2;PMS_P1;PMS_P2;Temp;Humidity;BMP_temperature;BMP_pressure;BME280_temperature;BME280_humidity;BME280_pressure;Samples;Min_cycle;Max_cycle;Signal;HPM_P1;HPM_P2
2023/03/05 00:01:06;;;;;;;31.97;18.20;;;;;;;4.21;46.53;100044.34;10307020;28;20241;-65
2023/03/05 00:06:08;;;;;;;37.90;17.60;;;;;;;3.67;48.58;100045.56;10309017;28;20226;-65
2023/03/05 00:11:11;;;;;;;31.17;17.70;;;;;;;3.60;47.84;100059.31;10309150;28;20230;-65
2023/03/05 00:16:14;;;;;;;30.97;17.57;;;;;;;4.65;46.19;100009.53;10315117;28;20230;-64
2023/03/05 00:21:28;;;;;;;30.90;17.87;;;;;;;3.16;48.00;100121.25;10310762;28;20321;-65
2023/03/05 00:26:33;;;;;;;30.23;18.40;;;;;;;3.93;48.71;100017.63;10313108;28;20230;-67
2023/03/05 00:31:36;;;;;;;31.70;17.83;;;;;;;4.84;46.34;99993.59;10315848;28;20727;-67
2023/03/05 00:36:49;;;;;;;31.77;17.40;;;;;;;4.80;46.01;100017.91;10314314;28;20232;-65
2023/03/05 00:41:51;;;;;;;30.17;17.83;;;;;;;3.83;47.84;100067.06;10343137;28;20874;-65
2023/03/05 00:46:53;;;;;;;30.37;17.60;;;;;;;4.03;47.80;100054.72;10322774;28;20230;-67
2023/03/05 00:51:55;;;;;;;34.23;19.03;;;;;;;3.24;48.95;100113.53;10307555;28;20721;-64
2023/03/05 00:56:56;;;;;;;30.20;17.00;;;;;;;3.71;48.35;100052.25;10311448;28;20858;-65
2023/03/05 01:01:58;;;;;;;33.90;18.27;;;;;;;3.81;48.13;100037.25;10313811;28;20246;-65
2023/03/05 01:07:00;;;;;;;29.10;17.90;;;;;;;2.35;49.65;100109.25;10311336;28;20749;-67
2023/03/05 01:12:02;;;;;;;31.37;17.70;;;;;;;1.64;51.27;100157.97;10313339;28;20238;-67
2023/03/05 01:17:03;;;;;;;28.87;18.20;;;;;;;2.33;49.80;100086.56;10312153;28;20289;-67
2023/03/05 01:22:05;;;;;;;31.17;18.60;;;;;;;2.79;49.64;100050.25;10314727;28;20281;-67
2023/03/05 01:27:07;;;;;;;33.07;18.30;;;;;;;2.42;51.05;100048.84;10308512;28;20234;-66
2023/03/05 01:32:08;;;;;;;31.93;18.27;;;;;;;2.85;49.90;99996.91;10309748;28;21132;-66
2023/03/05 01:37:10;;;;;;;29.20;17.27;;;;;;;5.15;46.61;99874.03;10347355;28;20308;-67
2023/03/05 01:42:12;;;;;;;37.97;19.07;;;;;;;4.64;46.92;99913.25;10344321;28;20241;-67
2023/03/05 01:47:13;;;;;;;32.67;17.60;;;;;;;3.45;48.31;100013.00;10346534;28;20281;-66
2023/03/05 01:52:18;;;;;;;34.60;18.43;;;;;;;1.33;51.07;100144.47;10349659;28;20225;-67
2023/03/05 01:57:43;;;;;;;31.03;18.30;;;;;;;2.04;51.36;100073.88;10312976;28;20233;-64
2023/03/05 02:02:49;;;;;;;33.00;16.53;;;;;;;2.62;50.02;99993.53;10313884;28;20245;-66
2023/03/05 02:07:59;;;;;;;30.23;17.43;;;;;;;2.28;50.45;99996.31;10352811;28;20237;-67
2023/03/05 02:13:05;;;;;;;35.00;17.80;;;;;;;3.86;48.32;99905.31;10306845;28;20241;-67
2023/03/05 02:18:08;;;;;;;31.90;18.47;;;;;;;3.48;48.68;99957.19;10313556;28;20272;-67
2023/03/05 02:23:09;;;;;;;32.27;17.43;;;;;;;3.89;47.55;99930.69;10349184;28;20228;-65
2023/03/05 02:28:18;;;;;;;31.00;17.60;;;;;;;4.95;46.26;99871.44;10308933;28;20226;-67
2023/03/05 02:33:20;;;;;;;32.20;17.50;;;;;;;4.16;47.17;99933.47;10312561;28;21000;-67
2023/03/05 02:38:21;;;;;;;29.97;17.50;;;;;;;4.29;46.75;99906.72;10346520;28;20254;-67
2023/03/05 02:43:23;;;;;;;28.83;17.77;;;;;;;4.91;46.41;99862.13;10312798;28;20256;-67
2023/03/05 02:48:25;;;;;;;32.20;17.87;;;;;;;3.65;47.86;99951.25;10347331;28;20234;-67
2023/03/05 02:53:26;;;;;;;31.03;18.23;;;;;;;4.66;46.50;99882.16;10305833;28;20633;-67
2023/03/05 02:58:28;;;;;;;31.17;18.30;;;;;;;3.46;48.36;99975.84;10314738;28;20241;-67
2023/03/05 03:03:30;;;;;;;31.00;18.50;;;;;;;3.47;48.67;99961.63;10346763;28;20241;-67
2023/03/05 03:08:31;;;;;;;33.03;18.47;;;;;;;3.98;48.34;99900.72;10350877;28;20831;-66
2023/03/05 03:13:33;;;;;;;28.03;17.43;;;;;;;3.97;47.71;99905.19;10349608;28;20241;-67
2023/03/05 03:18:35;;;;;;;33.27;17.07;;;;;;;4.82;46.28;99847.06;10349277;28;20230;-66
2023/03/05 03:23:37;;;;;;;32.67;18.60;;;;;;;4.18;47.68;99889.16;10350430;28;20252;-67
2023/03/05 03:28:39;;;;;;;32.93;18.33;;;;;;;3.42;48.24;99936.53;10348268;28;20826;-67
2023/03/05 03:33:40;;;;;;;31.50;17.47;;;;;;;4.16;47.40;99863.78;10351818;28;20240;-67
2023/03/05 03:38:42;;;;;;;32.70;18.73;;;;;;;5.26;46.02;99809.31;10345451;28;20241;-66
2023/03/05 03:43:44;;;;;;;38.23;18.97;;;;;;;3.84;48.01;99884.25;10314231;28;20389;-67
2023/03/05 03:48:49;;;;;;;35.57;18.37;;;;;;;2.30;50.51;99975.91;10354848;28;20241;-66
2023/03/05 03:53:51;;;;;;;34.03;18.47;;;;;;;2.80;50.21;99915.34;10362607;28;20258;-67
2023/03/05 03:58:53;;;;;;;34.57;19.97;;;;;;;2.91;50.57;99902.09;10357266;28;20279;-64
2023/03/05 04:03:54;;;;;;;32.83;18.50;;;;;;;3.40;49.00;99867.91;10358117;28;20742;-64
2023/03/05 04:08:56;;;;;;;35.47;19.03;;;;;;;2.82;49.97;99875.56;10357134;28;20320;-64
2023/03/05 04:13:58;;;;;;;30.27;17.30;;;;;;;2.10;50.84;99948.50;10353445;28;20256;-63
2023/03/05 04:19:00;;;;;;;35.93;19.70;;;;;;;3.50;49.18;99846.75;10356316;28;20240;-63
2023/03/05 04:24:01;;;;;;;33.30;19.33;;;;;;;4.39;47.14;99804.25;10355149;28;20292;-63
2023/03/05 04:29:03;;;;;;;36.40;18.47;;;;;;;2.95;49.54;99876.22;10347153;28;20792;-65
2023/03/05 04:34:05;;;;;;;32.90;19.30;;;;;;;3.60;48.96;99839.66;10327353;28;20240;-64
2023/03/05 04:39:06;;;;;;;33.50;18.83;;;;;;;2.72;49.71;99913.38;10356390;28;20237;-64
2023/03/05 04:44:08;;;;;;;35.67;18.77;;;;;;;4.13;48.36;99795.19;10322442;28;20751;-64
2023/03/05 04:49:10;;;;;;;30.70;18.20;;;;;;;4.47;47.08;99800.03;10338323;28;20591;-64
2023/03/05 04:54:11;;;;;;;32.90;18.33;;;;;;;4.94;46.64;99766.34;10307494;28;20737;-64
2023/03/05 04:59:13;;;;;;;33.17;18.33;;;;;;;4.82;46.20;99803.81;10314680;28;20233;-64
2023/03/05 05:04:15;;;;;;;35.40;19.37;;;;;;;4.34;47.23;99840.06;10320628;28;20985;-63
2023/03/05 05:09:16;;;;;;;32.77;18.70;;;;;;;4.56;46.76;99810.59;10360120;28;20236;-65
2023/03/05 05:14:18;;;;;;;32.87;18.00;;;;;;;4.85;46.08;99806.19;10346471;28;20632;-65
2023/03/05 05:19:20;;;;;;;38.43;18.47;;;;;;;1.39;51.38;100015.63;10311480;28;20760;-65
2023/03/05 05:24:22;;;;;;;32.23;17.87;;;;;;;1.68;52.17;99954.47;10323843;28;20229;-64
2023/03/05 05:29:24;;;;;;;36.73;19.23;;;;;;;2.98;50.83;99817.81;10362080;28;20244;-64
2023/03/05 05:34:26;;;;;;;34.53;19.50;;;;;;;3.29;49.76;99825.66;10345027;28;20734;-63
2023/03/05 05:39:28;;;;;;;34.90;18.43;;;;;;;3.80;48.97;99784.94;10309029;28;20314;-65
2023/03/05 05:44:29;;;;;;;35.30;19.37;;;;;;;4.31;47.63;99763.53;10321906;28;20244;-63
2023/03/05 05:49:31;;;;;;;34.90;19.03;;;;;;;3.79;48.55;99822.94;10340645;28;20240;-65
2023/03/05 05:54:33;;;;;;;36.10;19.63;;;;;;;3.40;48.73;99864.41;10321958;28;20233;-64
2023/03/05 05:59:36;;;;;;;34.10;19.67;;;;;;;4.17;47.62;99815.97;10338537;28;20762;-64
2023/03/05 06:04:39;;;;;;;32.23;19.43;;;;;;;4.32;47.42;99816.41;10312358;28;20247;-63
2023/03/05 06:09:40;;;;;;;39.67;20.73;;;;;;;3.54;48.54;99876.41;10311204;28;20330;-64
2023/03/05 06:14:42;;;;;;;38.00;20.93;;;;;;;3.51;48.59;99882.81;10320842;28;20344;-63
2023/03/05 06:19:44;;;;;;;37.20;20.83;;;;;;;3.54;48.57;99848.13;10336056;28;20234;-65
2023/03/05 06:24:46;;;;;;;34.50;21.17;;;;;;;2.70;49.75;99910.03;10321348;28;20233;-65
2023/03/05 06:29:51;;;;;;;39.33;21.73;;;;;;;3.92;49.15;99784.75;10337812;28;20618;-64
2023/03/05 06:34:53;;;;;;;34.93;19.83;;;;;;;2.97;49.93;99876.09;10310960;28;20230;-64
2023/03/05 06:39:54;;;;;;;38.17;19.97;;;;;;;3.96;48.63;99776.41;10310177;28;20249;-63
2023/03/05 06:44:56;;;;;;;37.70;20.30;;;;;;;4.34;47.59;99768.53;10328056;28;20249;-64
2023/03/05 06:49:57;;;;;;;31.67;19.47;;;;;;;4.48;48.14;99764.63;10354120;28;20240;-65
2023/03/05 06:54:59;;;;;;;38.57;20.83;;;;;;;2.91;49.09;99859.78;10331803;28;20725;-65
2023/03/05 07:00:06;;;;;;;39.00;20.60;;;;;;;4.12;48.00;99794.38;10313174;28;20308;-62
2023/03/05 07:05:08;;;;;;;43.23;20.57;;;;;;;4.39;47.52;99785.69;10327895;28;20610;-64
2023/03/05 07:10:10;;;;;;;37.70;20.37;;;;;;;4.26;47.82;99813.47;10353286;28;20237;-64
2023/03/05 07:15:12;;;;;;;36.73;19.73;;;;;;;3.89;47.76;99835.38;10336400;28;20234;-64
2023/03/05 07:20:14;;;;;;;35.53;20.20;;;;;;;5.08;46.32;99750.91;10308665;28;20244;-65
2023/03/05 07:25:20;;;;;;;34.27;20.30;;;;;;;3.42;49.27;99862.47;10336622;28;20255;-64
2023/03/05 07:30:22;;;;;;;37.00;20.23;;;;;;;3.42;49.28;99849.25;10341945;28;20234;-64
2023/03/05 07:35:23;;;;;;;33.27;18.67;;;;;;;3.76;48.74;99804.69;10344270;28;20225;-65
2023/03/05 07:40:25;;;;;;;34.67;19.63;;;;;;;3.27;49.66;99835.56;10357800;28;20256;-63
2023/03/05 07:45:27;;;;;;;38.27;19.23;;;;;;;4.56;48.37;99746.19;10335401;28;20712;-64
2023/03/05 07:50:28;;;;;;;35.83;19.73;;;;;;;4.61;47.37;99767.78;10314901;28;20242;-65
2023/03/05 07:55:30;;;;;;;35.63;19.83;;;;;;;4.57;47.83;99796.34;10336173;28;20233;-64
2023/03/05 08:00:32;;;;;;;33.33;18.20;;;;;;;5.02;47.21;99759.47;10353325;28;20237;-64
2023/03/05 08:05:33;;;;;;;32.30;19.03;;;;;;;4.57;47.29;99788.41;10339452;28;20241;-65
2023/03/05 08:10:36;;;;;;;27.93;16.83;;;;;;;5.45;47.22;99726.06;10315331;28;20268;-64
2023/03/05 08:15:38;;;;;;;30.67;18.10;;;;;;;5.00;47.07;99774.69;10322426;28;20283;-63
2023/03/05 08:20:39;;;;;;;34.17;18.57;;;;;;;2.50;51.41;99903.78;10336813;28;20786;-65
2023/03/05 08:25:41;;;;;;;26.80;16.93;;;;;;;5.69;46.34;99720.19;10353180;28;20236;-64
2023/03/05 08:30:43;;;;;;;31.73;18.17;;;;;;;4.62;48.20;99803.88;10330272;28;20230;-63
2023/03/05 08:35:44;;;;;;;31.00;17.77;;;;;;;5.63;46.49;99728.75;10321922;28;20237;-65
2023/03/05 08:40:47;;;;;;;31.47;16.93;;;;;;;6.16;46.29;99698.59;10313488;28;20245;-65
2023/03/05 08:45:50;;;;;;;29.97;17.83;;;;;;;4.81;47.93;99792.38;10335817;28;20232;-63
2023/03/05 08:50:52;;;;;;;28.90;18.17;;;;;;;4.83;48.40;99777.16;10331538;28;20234;-64
2023/03/05 08:55:55;;;;;;;26.60;18.73;;;;;;;4.72;48.86;99798.56;10339423;28;20234;-62
2023/03/05 09:00:57;;;;;;;28.13;16.90;;;;;;;5.51;47.12;99728.94;10330961;28;20244;-64
2023/03/05 09:06:03;;;;;;;28.63;16.60;;;;;;;4.99;48.28;99773.84;10316188;28;20237;-64
2023/03/05 09:11:07;;;;;;;27.47;16.37;;;;;;;4.27;49.36;99800.06;10309109;28;20257;-63
2023/03/05 09:16:14;;;;;;;28.23;17.13;;;;;;;4.75;48.57;99759.31;10343572;28;20286;-64
2023/03/05 09:21:16;;;;;;;24.93;16.47;;;;;;;5.47;47.65;99709.03;10322776;28;20509;-64
2023/03/05 09:26:19;;;;;;;25.17;15.27;;;;;;;5.31;48.11;99751.31;10334899;28;20853;-63
2023/03/05 09:31:20;;;;;;;24.93;17.77;;;;;;;5.70;47.65;99719.19;10323756;28;20229;-64
2023/03/05 09:36:26;;;;;;;23.63;15.47;;;;;;;4.98;48.03;99743.03;10309192;28;20233;-64
2023/03/05 09:42:03;;;;;;;29.27;18.13;;;;;;;6.10;47.07;99690.41;10304316;28;20659;-64
2023/03/05 09:47:32;;;;;;;24.00;13.77;;;;;;;5.47;47.50;99706.38;10308826;28;20784;-64
2023/03/05 09:52:49;;;;;;;20.83;13.93;;;;;;;3.97;49.40;99770.13;10308926;28;20249;-65
2023/03/05 09:57:54;;;;;;;25.87;14.97;;;;;;;6.62;45.15;99685.81;10309335;28;20464;-64
2023/03/05 10:02:58;;;;;;;27.20;17.93;;;;;;;6.47;46.44;99707.88;10309285;28;20238;-67
2023/03/05 10:08:03;;;;;;;26.23;16.33;;;;;;;6.60;45.70;99690.47;10313770;28;20292;-67
2023/03/05 10:13:15;;;;;;;21.87;13.60;;;;;;;6.15;46.16;99723.47;10315706;28;20230;-67
2023/03/05 10:18:48;;;;;;;22.03;13.83;;;;;;;7.44;45.11;99677.19;10342353;28;20392;-67
2023/03/05 10:24:00;;;;;;;19.23;13.33;;;;;;;6.49;45.80;99725.31;10342055;28;20237;-67
2023/03/05 10:29:35;;;;;;;18.53;11.87;;;;;;;3.03;51.17;99836.75;10340925;28;20249;-67
2023/03/05 10:35:06;;;;;;;19.17;11.90;;;;;;;5.41;47.57;99752.09;10333200;28;20241;-66
2023/03/05 10:40:46;;;;;;;18.63;11.30;;;;;;;6.32;46.80;99673.09;10311317;28;20248;-67
2023/03/05 10:45:53;;;;;;;17.13;11.73;;;;;;;6.36;45.88;99701.00;10336952;28;20237;-66
2023/03/05 10:51:01;;;;;;;20.27;14.00;;;;;;;7.10;44.67;99646.22;10349733;28;20596;-66
2023/03/05 10:56:04;;;;;;;20.53;11.80;;;;;;;6.73;46.55;99660.75;10338758;28;20205;-66
2023/03/05 11:06:42;;;;;;;15.60;9.70;;;;;;;5.41;47.99;99672.47;10342848;28;20852;-66
2023/03/05 11:12:07;;;;;;;13.63;10.00;;;;;;;3.78;50.13;99727.78;10265395;28;20243;-67
2023/03/05 11:17:23;;;;;;;13.97;9.87;;;;;;;4.20;49.55;99707.09;10267522;28;20241;-67
2023/03/05 11:22:25;;;;;;;13.83;9.67;;;;;;;5.41;47.73;99621.22;10305419;28;20832;-67
2023/03/05 11:27:32;;;;;;;17.10;8.90;;;;;;;4.31;48.55;99692.00;10304672;28;20342;-66
2023/03/05 11:32:34;;;;;;;13.37;9.13;;;;;;;5.42;47.73;99620.22;10301818;28;20228;-66
2023/03/05 11:37:35;;;;;;;14.10;8.70;;;;;;;5.69;47.37;99611.31;10308255;28;20226;-66
2023/03/05 11:42:39;;;;;;;10.50;8.60;;;;;;;4.02;48.70;99714.13;10304429;28;20243;-67
2023/03/05 11:47:49;;;;;;;14.87;9.87;;;;;;;6.20;46.43;99584.84;10304391;28;20242;-67
2023/03/05 11:52:56;;;;;;;15.47;9.43;;;;;;;5.26;46.79;99644.81;10302485;28;20889;-66
2023/03/05 11:58:16;;;;;;;16.43;8.70;;;;;;;6.30;45.70;99619.25;10301627;28;20244;-66
2023/03/05 12:03:22;;;;;;;15.17;8.57;;;;;;;4.09;48.77;99704.59;10299410;28;20229;-66
2023/03/05 12:08:32;;;;;;;12.67;8.70;;;;;;;5.03;47.80;99631.16;10297046;28;20238;-65
2023/03/05 12:13:39;;;;;;;12.83;8.30;;;;;;;5.55;47.46;99586.13;10294423;28;20661;-67
2023/03/05 12:19:06;;;;;;;16.90;9.63;;;;;;;4.83;47.60;99631.34;10276466;28;20585;-67
2023/03/05 12:24:23;;;;;;;13.40;9.37;;;;;;;6.24;45.95;99554.28;10270610;28;20235;-69
2023/03/05 12:29:40;;;;;;;14.93;8.73;;;;;;;5.04;47.28;99596.53;10276310;28;20748;-64
2023/03/05 12:34:48;;;;;;;11.80;8.50;;;;;;;4.70;48.02;99639.66;10272051;28;20260;-67
2023/03/05 12:40:09;;;;;;;13.83;8.93;;;;;;;5.97;46.47;99558.00;10271321;28;20351;-71
2023/03/05 12:45:11;;;;;;;12.03;9.03;;;;;;;6.07;45.16;99548.91;10265176;28;20705;-69
2023/03/05 12:50:28;;;;;;;25.43;14.73;;;;;;;5.10;46.36;99589.81;10271692;28;20246;-64
2023/03/05 12:55:44;;;;;;;24.30;15.67;;;;;;;4.38;48.53;99625.03;10275901;28;20243;-71
2023/03/05 13:00:58;;;;;;;18.90;13.53;;;;;;;6.03;47.47;99526.34;10272875;28;20953;-70
2023/03/05 13:06:02;;;;;;;19.50;12.73;;;;;;;4.85;48.94;99586.94;10272402;28;20238;-70
2023/03/05 13:11:08;;;;;;;21.77;13.50;;;;;;;4.87;49.37;99545.19;10274221;28;20245;-72
2023/03/05 13:16:22;;;;;;;21.93;13.73;;;;;;;2.89;52.54;99646.78;10274635;28;20765;-67
2023/03/05 13:21:28;;;;;;;22.23;13.80;;;;;;;5.29;49.28;99483.47;10272910;28;20792;-69
2023/03/05 13:26:39;;;;;;;21.73;14.00;;;;;;;3.87;52.13;99546.09;10273952;28;20243;-67
2023/03/05 13:31:48;;;;;;;19.47;13.13;;;;;;;4.81;49.34;99503.41;10275322;28;20722;-67
2023/03/05 13:37:00;;;;;;;21.93;13.83;;;;;;;3.99;51.68;99523.75;10274213;28;21006;-67
2023/03/05 13:42:01;;;;;;;21.67;13.60;;;;;;;5.31;48.55;99449.66;10277743;28;21575;-66
2023/03/05 13:47:16;;;;;;;20.90;14.27;;;;;;;4.65;49.80;99512.03;10285605;28;20248;-69
2023/03/05 13:52:27;;;;;;;20.63;13.40;;;;;;;5.73;47.90;99431.31;10279062;28;20293;-67
2023/03/05 13:57:41;;;;;;;21.97;13.30;;;;;;;4.87;48.71;99507.25;10270536;28;20731;-68
2023/03/05 14:02:43;;;;;;;23.70;14.50;;;;;;;5.16;48.68;99498.16;10281986;28;20245;-69
2023/03/05 14:07:48;;;;;;;19.80;14.13;;;;;;;4.76;48.73;99506.50;10271875;28;20242;-69
2023/03/05 14:12:50;;;;;;;22.73;13.80;;;;;;;4.71;49.81;99500.81;10276424;28;20257;-67
2023/03/05 14:18:07;;;;;;;21.53;13.20;;;;;;;4.60;49.55;99479.03;10282423;28;20703;-68
2023/03/05 14:23:45;;;;;;;21.73;13.37;;;;;;;5.49;47.67;99425.69;10284657;28;20238;-68
2023/03/05 14:28:53;;;;;;;24.33;15.70;;;;;;;4.79;48.96;99483.31;10298265;28;20238;-68
2023/03/05 14:34:00;;;;;;;21.23;15.33;;;;;;;5.83;47.73;99413.41;10270279;28;20231;-67
2023/03/05 14:39:03;;;;;;;24.27;15.17;;;;;;;6.20;46.95;99388.22;10280199;28;20899;-67
2023/03/05 14:44:14;;;;;;;21.53;14.30;;;;;;;5.75;47.54;99418.69;10275908;28;20295;-70
2023/03/05 14:49:16;;;;;;;20.33;14.90;;;;;;;5.77;46.97;99404.25;10273081;28;20241;-71
2023/03/05 14:54:24;;;;;;;21.70;15.43;;;;;;;5.68;47.73;99421.97;10269288;28;20234;-70
2023/03/05 14:59:26;;;;;;;24.10;15.37;;;;;;;5.90;47.37;99405.63;10282949;28;20311;-68
2023/03/05 15:04:28;;;;;;;19.80;13.23;;;;;;;5.84;47.78;99410.59;10275836;28;20235;-68
2023/03/05 15:09:29;;;;;;;22.83;14.13;;;;;;;6.59;46.11;99359.13;10273374;28;20238;-70
2023/03/05 15:14:31;;;;;;;22.23;13.20;;;;;;;3.40;50.81;99489.59;10272302;28;20249;-69
2023/03/05 15:19:32;;;;;;;21.43;12.97;;;;;;;5.39;48.55;99400.28;10271822;28;20246;-68
2023/03/05 15:24:34;;;;;;;26.40;14.60;;;;;;;6.28;46.46;99340.41;10269766;28;20228;-71
2023/03/05 15:29:36;;;;;;;24.20;14.87;;;;;;;6.33;46.48;99348.69;10271011;28;20267;-69
2023/03/05 15:34:37;;;;;;;22.57;14.03;;;;;;;6.10;46.70;99377.75;10269394;28;20231;-70
2023/03/05 15:39:39;;;;;;;21.13;13.63;;;;;;;5.55;46.96;99399.50;10269258;28;20744;-69
2023/03/05 15:44:41;;;;;;;22.33;12.83;;;;;;;4.99;47.53;99389.31;10269601;28;20238;-70
2023/03/05 15:49:42;;;;;;;19.07;13.07;;;;;;;5.28;46.51;99393.44;10273422;28;20235;-70
2023/03/05 15:54:44;;;;;;;18.73;11.50;;;;;;;4.90;47.80;99411.50;10292057;28;20363;-68
2023/03/05 15:59:46;;;;;;;24.63;13.03;;;;;;;5.28;47.01;99390.78;10274036;28;20250;-66
2023/03/05 16:04:47;;;;;;;20.37;12.33;;;;;;;5.49;47.16;99390.38;10331916;22;20244;-35
2023/03/05 16:09:50;;;;;;;18.03;12.23;;;;;;;4.85;47.90;99405.81;10322244;28;20743;-35
2023/03/05 16:14:52;;;;;;;17.90;11.50;;;;;;;5.64;46.92;99337.53;10324481;28;20791;-35
2023/03/05 16:19:54;;;;;;;18.23;11.60;;;;;;;6.25;45.85;99304.34;10300486;22;20234;-36
2023/03/05 16:24:57;;;;;;;18.30;11.83;;;;;;;3.75;47.58;99366.31;10284655;28;20246;-36
2023/03/05 16:29:58;;;;;;;15.60;11.03;;;;;;;6.08;45.94;99300.06;10242374;28;20243;-38
2023/03/05 16:35:00;;;;;;;17.40;11.83;;;;;;;4.09;48.55;99400.06;10249159;28;20242;-36
2023/03/05 16:40:02;;;;;;;20.20;12.83;;;;;;;5.62;46.67;99292.56;10238481;28;20239;-36
2023/03/05 16:45:06;;;;;;;19.80;12.30;;;;;;;4.46;49.12;99379.69;10224773;28;20303;-36
2023/03/05 16:50:09;;;;;;;20.33;13.77;;;;;;;5.50;47.98;99296.47;10223042;28;20243;-37
2023/03/05 16:55:11;;;;;;;21.47;13.20;;;;;;;4.24;50.06;99368.59;10235508;28;20253;-38
2023/03/05 17:00:13;;;;;;;24.30;12.53;;;;;;;5.09;48.27;99301.69;10235281;28;20239;-42
2023/03/05 17:05:15;;;;;;;19.87;12.17;;;;;;;5.77;46.54;99255.56;10242075;28;20685;-36
2023/03/05 17:10:17;;;;;;;19.67;11.87;;;;;;;6.45;45.41;99237.56;10235065;28;20613;-39
2023/03/05 17:15:19;;;;;;;14.77;10.80;;;;;;;6.58;44.49;99248.47;10233862;28;20235;-38
2023/03/05 17:20:20;;;;;;;23.53;16.67;;;;;;;5.60;46.41;99337.00;10236390;28;20227;-38
2023/03/05 17:25:22;;;;;;;20.57;15.53;;;;;;;5.81;45.06;99306.53;10231784;28;20239;-36
2023/03/05 17:30:24;;;;;;;36.97;23.20;;;;;;;5.02;46.24;99353.72;10234430;28;20235;-36
2023/03/05 17:35:26;;;;;;;31.97;20.57;;;;;;;5.43;45.90;99352.03;10232057;28;20235;-37
2023/03/05 17:40:28;;;;;;;23.87;16.03;;;;;;;4.94;46.27;99355.31;10234564;28;20326;-37
2023/03/05 17:45:30;;;;;;;14.90;11.73;;;;;;;5.28;45.48;99349.19;10236164;28;20235;-36
2023/03/05 17:50:32;;;;;;;16.07;11.67;;;;;;;4.73;46.34;99374.25;10225357;28;20350;-36
2023/03/05 17:55:33;;;;;;;14.07;10.90;;;;;;;4.63;46.20;99364.75;10236196;28;20235;-38
2023/03/05 18:00:36;;;;;;;9.50;8.50;;;;;;;4.62;46.11;99355.13;10230585;28;20231;-37
2023/03/05 18:05:39;;;;;;;10.13;8.57;;;;;;;4.39;46.43;99374.19;10231748;28;20238;-38
2023/03/05 18:10:41;;;;;;;9.57;7.93;;;;;;;4.14;46.32;99381.09;10230197;28;20234;-38
2023/03/05 18:15:46;;;;;;;12.20;8.30;;;;;;;5.01;45.50;99318.38;10233337;28;20238;-41
2023/03/05 18:20:48;;;;;;;12.83;9.47;;;;;;;4.78;46.39;99344.63;10227570;28;20247;-39
2023/03/05 18:25:50;;;;;;;20.50;13.73;;;;;;;4.52;46.38;99349.94;10229883;28;20245;-39
2023/03/05 18:30:52;;;;;;;15.73;11.70;;;;;;;5.41;45.20;99306.25;10233342;28;20721;-38
2023/03/05 18:35:54;;;;;;;11.87;9.27;;;;;;;4.97;46.17;99322.34;10236115;28;20294;-38
2023/03/05 18:41:00;;;;;;;10.47;8.17;;;;;;;3.82;46.75;99382.44;10232312;28;20753;-39
2023/03/05 18:46:03;;;;;;;11.53;8.50;;;;;;;4.61;46.78;99319.88;10233613;28;20231;-40
2023/03/05 18:51:12;;;;;;;12.17;10.07;;;;;;;4.93;46.46;99308.59;10236640;28;20231;-41
2023/03/05 18:56:14;;;;;;;12.53;8.93;;;;;;;5.35;45.83;99264.44;10230407;28;20319;-39
2023/03/05 19:01:17;;;;;;;17.27;12.67;;;;;;;3.97;47.82;99365.03;10234864;28;20480;-39
2023/03/05 19:06:19;;;;;;;12.57;9.83;;;;;;;4.24;47.04;99328.00;10231224;28;20231;-39
2023/03/05 19:11:20;;;;;;;11.43;8.70;;;;;;;3.41;47.93;99356.38;10227561;28;20246;-38
2023/03/05 19:16:26;;;;;;;10.47;9.37;;;;;;;3.39;48.78;99341.63;10229127;28;20265;-39
2023/03/05 19:21:30;;;;;;;11.97;9.10;;;;;;;3.66;48.31;99319.56;10223874;28;20565;-38
2023/03/05 19:26:32;;;;;;;10.47;8.27;;;;;;;3.70;48.33;99305.06;10235238;28;20241;-39
2023/03/05 19:31:35;;;;;;;14.53;9.50;;;;;;;3.86;47.47;99301.72;10235435;28;20239;-38
2023/03/05 19:36:37;;;;;;;11.77;9.17;;;;;;;3.92;47.83;99306.44;10238862;28;20607;-39
2023/03/05 19:41:39;;;;;;;16.13;11.30;;;;;;;4.95;46.60;99242.13;10235652;28;20247;-38
2023/03/05 19:46:42;;;;;;;12.13;9.83;;;;;;;3.81;47.86;99306.66;10243547;28;20627;-40
2023/03/05 19:51:45;;;;;;;11.97;9.17;;;;;;;4.54;47.47;99245.47;10242069;28;20796;-40
2023/03/05 19:56:47;;;;;;;10.77;8.70;;;;;;;4.25;47.18;99258.97;10236678;28;20239;-38
2023/03/05 20:01:49;;;;;;;14.10;10.43;;;;;;;5.10;46.48;99200.75;10238951;28;20381;-37
2023/03/05 20:06:51;;;;;;;13.43;11.23;;;;;;;4.90;46.70;99215.28;10244450;28;20712;-39
2023/03/05 20:11:53;;;;;;;22.77;15.23;;;;;;;4.18;47.40;99263.25;10233216;28;20748;-38
2023/03/05 20:16:55;;;;;;;11.00;9.43;;;;;;;3.97;47.52;99269.72;10236242;28;20244;-38
2023/03/05 20:21:56;;;;;;;14.77;11.73;;;;;;;4.09;46.87;99254.44;10231348;28;20246;-37
2023/03/05 20:26:59;;;;;;;15.87;11.63;;;;;;;4.61;47.09;99229.75;10239110;28;20235;-38
2023/03/05 20:32:01;;;;;;;16.53;10.47;;;;;;;4.34;46.98;99234.25;10233487;28;20725;-40
2023/03/05 20:37:04;;;;;;;13.20;9.73;;;;;;;4.70;46.64;99207.59;10213303;28;20245;-40
2023/03/05 20:42:06;;;;;;;15.83;10.20;;;;;;;4.82;46.55;99197.50;10214044;28;20243;-41
2023/03/05 20:47:45;;;;;;;18.87;13.23;;;;;;;3.88;47.74;99278.56;9350817;28;10000357;-41
2023/03/05 20:52:46;;;;;;;17.53;12.20;;;;;;;4.83;46.85;99196.53;10251763;28;20245;-38
2023/03/05 20:57:48;;;;;;;16.90;12.27;;;;;;;4.60;47.26;99208.72;10251858;28;20244;-38
2023/03/05 21:02:53;;;;;;;14.83;10.07;;;;;;;3.55;48.75;99274.84;10249278;28;20243;-38
2023/03/05 21:07:56;;;;;;;12.33;10.00;;;;;;;3.97;47.65;99214.13;10249999;28;20239;-39
2023/03/05 21:12:58;;;;;;;12.27;10.20;;;;;;;4.37;47.25;99196.00;10258260;28;20250;-38
2023/03/05 21:18:01;;;;;;;12.93;9.13;;;;;;;4.81;46.15;99158.75;10254925;28;20617;-39
2023/03/05 21:23:03;;;;;;;13.13;10.00;;;;;;;4.07;47.52;99215.84;10268954;28;20592;-37
2023/03/05 21:28:15;;;;;;;15.53;10.73;;;;;;;4.48;46.78;99176.38;10274217;28;20243;-37
2023/03/05 21:33:23;;;;;;;13.47;10.20;;;;;;;4.98;46.59;99145.50;10274978;28;20735;-38
2023/03/05 21:38:28;;;;;;;14.07;11.53;;;;;;;4.30;47.83;99177.22;10271998;28;20251;-37
2023/03/05 21:43:31;;;;;;;13.80;10.37;;;;;;;4.27;47.80;99156.38;10273180;28;20650;-38
2023/03/05 21:48:33;;;;;;;13.10;9.80;;;;;;;4.31;47.17;99149.78;10262207;28;20245;-42
2023/03/05 21:53:35;;;;;;;13.10;8.60;;;;;;;4.42;47.29;99142.56;10253807;28;20235;-37
2023/03/05 21:58:36;;;;;;;11.20;9.33;;;;;;;4.32;47.40;99140.88;10262849;28;20844;-39
2023/03/05 22:03:38;;;;;;;12.07;9.17;;;;;;;4.57;46.99;99091.41;10254458;28;20249;-39
2023/03/05 22:08:40;;;;;;;10.10;8.77;;;;;;;5.17;45.29;99064.81;10255187;28;20313;-39
2023/03/05 22:13:42;;;;;;;12.30;9.67;;;;;;;5.45;45.17;99057.31;10257313;28;20239;-36
2023/03/05 22:18:44;;;;;;;13.20;10.10;;;;;;;4.02;47.22;99147.47;10257345;28;20226;-37
2023/03/05 22:23:46;;;;;;;14.10;10.57;;;;;;;3.85;48.49;99162.44;10255119;28;20245;-37
2023/03/05 22:28:47;;;;;;;14.57;10.90;;;;;;;1.53;52.65;99260.22;10256754;28;20650;-36
2023/03/05 22:33:49;;;;;;;12.63;9.37;;;;;;;2.11;51.86;99148.50;10263592;28;20638;-36
2023/03/05 22:38:51;;;;;;;13.73;10.17;;;;;;;2.47;50.62;99135.41;10268348;28;20250;-36
2023/03/05 22:43:53;;;;;;;13.93;10.10;;;;;;;4.09;48.44;99024.06;10271708;28;20683;-38
2023/03/05 22:48:55;;;;;;;14.93;9.77;;;;;;;4.96;46.92;99013.09;10260398;28;20253;-36
2023/03/05 22:53:57;;;;;;;12.07;9.77;;;;;;;4.26;47.44;99054.06;10272575;28;20269;-37
2023/03/05 22:58:58;;;;;;;14.13;10.47;;;;;;;3.64;48.83;99099.28;10265957;28;20237;-36
2023/03/05 23:04:48;;;;;;;12.60;10.20;;;;;;;4.12;48.12;99052.00;10268149;28;20257;-36
2023/03/05 23:09:52;;;;;;;17.37;11.43;;;;;;;2.23;50.78;99159.69;10271460;28;20704;-38
2023/03/05 23:14:54;;;;;;;14.27;10.17;;;;;;;3.60;49.20;99045.03;10270312;28;20241;-36
2023/03/05 23:19:56;;;;;;;13.10;10.10;;;;;;;5.00;47.28;98955.25;10265863;28;20246;-38
2023/03/05 23:24:58;;;;;;;12.20;9.63;;;;;;;4.35;47.90;99013.38;10269043;28;20234;-36